Saint-Jovite, Canada
Current Conditions -  °F | °C
As of 9:00 AM on Monday 24 Nov 2014 (Local Time) from CYMX Reporting Station
Light Rain Light Rain  
Wind Chill: 40°   Ceiling: 700
Heat Index: 46°   Visibility: 6mi
Dew Point: 45°   Wind: 14mph
Humidity: 93%   Direction: 130°SE
Pressure: 29.44"   Gusts: NA
Location:  46.12°N, 74.59°W
Report Text: CYMX 241400Z 13012KT 6SM -RA BR OVC007 08/07 A2944 RMK SF8 PRESFR SLP972
Loading
Personal Weather Stations






























Interactive Weather Map New forecast layout! Learn more

10-Day Weather Forecast

Advertisements
Track Severe Weather on mobile